TimeEDT,TemperatureF,Dew PointF,Humidity,Sea Level PressureIn,VisibilityMPH,Wind Direction,Wind SpeedMPH,Gust SpeedMPH,PrecipitationIn,Events,Conditions,WindDirDegrees,DateUTC
12:52 AM,33.1,10.0,38,30.00,10.0,Calm,Calm,-,N/A,,Mostly Cloudy,0,2013-03-23 04:52:00
1:52 AM,32.0,10.9,42,30.00,10.0,WSW,4.6,-,N/A,,Mostly Cloudy,250,2013-03-23 05:52:00
2:52 AM,33.1,12.9,43,29.98,10.0,WSW,3.5,-,N/A,,Overcast,250,2013-03-23 06:52:00
3:52 AM,33.1,15.1,48,29.96,10.0,West,4.6,-,N/A,,Overcast,260,2013-03-23 07:52:00
4:52 AM,34.0,14.0,44,29.95,10.0,WNW,3.5,-,N/A,,Overcast,300,2013-03-23 08:52:00
5:52 AM,33.1,15.1,48,29.94,10.0,Calm,Calm,-,N/A,,Overcast,0,2013-03-23 09:52:00
6:52 AM,33.1,16.0,50,29.97,10.0,Calm,Calm,-,N/A,,Overcast,0,2013-03-23 10:52:00
7:52 AM,34.0,16.0,48,29.99,10.0,SW,3.5,-,N/A,,Overcast,230,2013-03-23 11:52:00
8:52 AM,35.1,16.0,46,30.01,10.0,Calm,Calm,-,N/A,,Overcast,0,2013-03-23 12:52:00
9:52 AM,37.0,14.0,39,30.01,10.0,WNW,3.5,-,N/A,,Overcast,290,2013-03-23 13:52:00
10:10 AM,37.4,14.0,38,29.98,10.0,SW,3.5,-,N/A,,Overcast,230,2013-03-23 14:10:00
10:52 AM,37.9,12.9,36,30.01,10.0,Calm,Calm,-,N/A,,Overcast,0,2013-03-23 14:52:00
11:52 AM,39.0,15.1,38,30.01,10.0,SW,4.6,-,N/A,,Overcast,230,2013-03-23 15:52:00
12:52 PM,39.9,18.0,41,30.00,10.0,Calm,Calm,-,N/A,,Overcast,0,2013-03-23 16:52:00
1:52 PM,42.1,23.0,47,29.99,10.0,Variable,5.8,-,N/A,,Overcast,0,2013-03-23 17:52:00
2:52 PM,44.1,24.1,45,29.97,10.0,NNW,5.8,-,N/A,,Overcast,330,2013-03-23 18:52:00
3:52 PM,46.0,25.0,44,29.95,10.0,WSW,6.9,-,N/A,,Overcast,250,2013-03-23 19:52:00
4:52 PM,50.0,26.1,39,29.92,10.0,NNW,3.5,-,N/A,,Overcast,330,2013-03-23 20:52:00
5:52 PM,48.9,26.1,41,29.92,10.0,West,4.6,-,N/A,,Clear,280,2013-03-23 21:52:00
6:52 PM,46.0,25.0,44,29.92,10.0,NW,4.6,-,N/A,,Clear,310,2013-03-23 22:52:00
7:52 PM,44.1,25.0,47,29.94,10.0,Calm,Calm,-,N/A,,Clear,0,2013-03-23 23:52:00
8:52 PM,44.1,23.0,43,29.94,10.0,Calm,Calm,-,N/A,,Clear,0,2013-03-24 00:52:00
9:52 PM,42.1,23.0,47,29.94,10.0,Calm,Calm,-,N/A,,Clear,0,2013-03-24 01:52:00
10:52 PM,41.0,23.0,49,29.92,10.0,Calm,Calm,-,N/A,,Clear,0,2013-03-24 02:52:00
11:52 PM,37.9,24.1,57,29.88,10.0,ENE,4.6,-,N/A,,Clear,60,2013-03-24 03:52:00